Time;durP1;ratioP1;P1;durP2;ratioP2;P2;SDS_P1;SDS_P2;PMS_P1;PMS_P2;Temp;Humidity;BMP_temperature;BMP_pressure;BME280_temperature;BME280_humidity;BME280_pressure;Samples;Min_cycle;Max_cycle;Signal;HPM_P1;HPM_P2
2021/09/20 00:00:47;;;;;;;8.88;5.78;;;;;;;11.41;82.86;101943.91;5052799;28;20033;-73
2021/09/20 00:03:13;;;;;;;9.18;5.55;;;;;;;11.40;82.72;101937.69;5052760;28;20021;-74
2021/09/20 00:05:38;;;;;;;10.20;5.47;;;;;;;11.41;82.64;101938.56;5052498;28;20032;-74
2021/09/20 00:08:04;;;;;;;5.72;4.95;;;;;;;11.40;82.58;101936.84;5052853;28;20053;-74
2021/09/20 00:10:30;;;;;;;6.03;5.35;;;;;;;11.42;81.77;101941.13;5052168;28;20021;-74
2021/09/20 00:12:55;;;;;;;7.10;5.13;;;;;;;11.46;81.36;101945.25;5052365;28;20060;-74
2021/09/20 00:15:20;;;;;;;5.72;4.85;;;;;;;11.46;81.34;101945.25;5051798;28;20029;-75
2021/09/20 00:17:46;;;;;;;6.32;4.55;;;;;;;11.47;80.42;101940.75;5051295;28;20054;-74
2021/09/20 00:20:13;;;;;;;5.78;5.05;;;;;;;11.44;80.75;101944.50;5052592;28;20473;-74
2021/09/20 00:22:38;;;;;;;7.45;5.13;;;;;;;11.44;80.40;101949.00;5052041;28;20032;-74
2021/09/20 00:25:05;;;;;;;6.28;5.15;;;;;;;11.41;80.98;101946.56;5052340;28;20033;-74
2021/09/20 00:27:30;;;;;;;5.38;4.60;;;;;;;11.36;80.97;101951.38;5051866;28;20103;-74
2021/09/20 00:29:56;;;;;;;7.50;4.65;;;;;;;11.36;80.98;101956.72;5052745;28;20459;-74
2021/09/20 00:32:21;;;;;;;8.32;4.95;;;;;;;11.36;81.33;101957.56;5050541;28;20457;-74
2021/09/20 00:34:47;;;;;;;7.68;5.15;;;;;;;11.40;81.25;101960.84;5052426;28;20118;-74
2021/09/20 00:37:12;;;;;;;6.43;4.82;;;;;;;11.44;81.39;101962.31;5052284;28;20064;-74
2021/09/20 00:39:38;;;;;;;5.80;4.57;;;;;;;11.51;80.98;101968.88;5051646;28;20444;-74
2021/09/20 00:42:05;;;;;;;7.47;5.00;;;;;;;11.53;81.35;101958.94;5052362;28;20029;-74
2021/09/20 00:44:31;;;;;;;7.22;4.90;;;;;;;11.56;81.59;101960.53;5050689;28;20029;-74
2021/09/20 00:46:57;;;;;;;6.18;4.85;;;;;;;11.57;81.91;101955.06;5052171;28;20477;-74
2021/09/20 00:49:22;;;;;;;9.20;4.95;;;;;;;11.56;81.85;101948.03;5051315;28;20059;-75
2021/09/20 00:51:47;;;;;;;9.15;5.00;;;;;;;11.57;81.84;101957.75;5052176;28;20546;-74
2021/09/20 00:54:13;;;;;;;8.25;4.85;;;;;;;11.57;81.10;101956.88;5051902;28;20040;-74
2021/09/20 00:56:39;;;;;;;7.47;5.10;;;;;;;11.58;80.88;101962.09;5033486;28;20620;-75
2021/09/20 00:59:05;;;;;;;7.13;5.60;;;;;;;11.54;80.80;101962.44;5052092;28;20515;-74
2021/09/20 01:01:32;;;;;;;9.32;5.15;;;;;;;11.51;80.69;101963.53;5051101;28;20143;-74
2021/09/20 01:03:58;;;;;;;8.02;5.22;;;;;;;11.45;80.98;101961.34;5051985;28;20179;-74
2021/09/20 01:06:23;;;;;;;8.35;5.60;;;;;;;11.39;81.61;101964.47;5050898;28;20140;-75
2021/09/20 01:08:49;;;;;;;8.68;5.43;;;;;;;11.35;82.02;101965.69;5051767;28;20465;-74
2021/09/20 01:11:15;;;;;;;8.82;5.55;;;;;;;11.31;82.32;101969.53;5051931;28;20064;-74
2021/09/20 01:13:40;;;;;;;7.10;5.90;;;;;;;11.29;81.44;101964.34;5051273;28;20354;-74
2021/09/20 01:16:06;;;;;;;10.07;5.40;;;;;;;11.31;81.54;101961.53;5051563;28;20087;-74
2021/09/20 01:18:31;;;;;;;7.90;5.75;;;;;;;11.33;80.72;101968.47;5051317;28;20120;-75
2021/09/20 01:20:56;;;;;;;7.57;5.60;;;;;;;11.35;81.80;101961.19;5052302;28;20110;-74
2021/09/20 01:23:22;;;;;;;7.32;5.35;;;;;;;11.37;81.41;101967.25;5051613;28;20112;-75
2021/09/20 01:25:47;;;;;;;7.88;5.70;;;;;;;11.36;80.07;101962.03;5050345;28;20060;-75
2021/09/20 01:28:13;;;;;;;7.00;5.30;;;;;;;11.34;80.61;101964.81;5051420;28;20040;-74
2021/09/20 01:30:38;;;;;;;8.55;5.22;;;;;;;11.27;81.04;101964.44;5050866;28;20519;-75
2021/09/20 01:33:04;;;;;;;10.82;5.38;;;;;;;11.18;81.09;101959.81;5052141;28;20083;-74
2021/09/20 01:35:30;;;;;;;6.70;4.82;;;;;;;11.06;81.41;101963.38;5051054;28;20442;-75
2021/09/20 01:37:55;;;;;;;7.57;5.53;;;;;;;10.93;82.33;101961.66;5051715;28;20033;-74
2021/09/20 01:40:21;;;;;;;10.10;5.05;;;;;;;10.82;82.51;101958.91;5051404;28;20036;-74
2021/09/20 01:42:47;;;;;;;6.50;4.82;;;;;;;10.75;81.62;101960.34;5051160;28;20115;-74
2021/09/20 01:45:14;;;;;;;8.73;5.07;;;;;;;10.68;82.27;101961.75;5051572;28;20128;-74
2021/09/20 01:47:40;;;;;;;7.57;4.60;;;;;;;10.60;81.73;101959.66;5050971;28;20104;-75
2021/09/20 01:50:08;;;;;;;8.38;4.70;;;;;;;10.61;81.74;101964.00;5051579;28;20056;-74
2021/09/20 01:52:33;;;;;;;5.03;4.32;;;;;;;10.63;82.53;101962.09;5049728;28;20029;-75
2021/09/20 01:54:59;;;;;;;8.02;4.47;;;;;;;10.63;81.98;101962.09;5052102;28;20477;-74
2021/09/20 01:57:24;;;;;;;6.38;4.95;;;;;;;10.64;81.76;101968.25;5053911;28;20059;-74
2021/09/20 01:59:51;;;;;;;7.15;4.85;;;;;;;10.63;82.05;101970.09;5054585;28;20033;-74
2021/09/20 02:02:16;;;;;;;6.32;4.45;;;;;;;10.65;82.22;101981.47;5055682;28;20038;-74
2021/09/20 02:04:42;;;;;;;5.97;4.50;;;;;;;10.71;81.69;101974.84;5054646;28;20037;-75
2021/09/20 02:07:07;;;;;;;9.07;4.60;;;;;;;10.79;82.52;101987.59;5054736;28;20436;-74
2021/09/20 02:09:32;;;;;;;6.15;4.75;;;;;;;10.84;81.62;101983.63;5054589;28;20071;-75
2021/09/20 02:11:58;;;;;;;4.80;4.30;;;;;;;10.92;80.83;101980.41;5057138;28;20438;-74
2021/09/20 02:14:23;;;;;;;7.28;4.63;;;;;;;10.98;79.68;101981.75;5056583;28;20458;-74
2021/09/20 02:16:49;;;;;;;7.82;4.72;;;;;;;11.02;80.31;101977.91;5056535;28;20392;-73
2021/09/20 02:19:14;;;;;;;6.63;4.88;;;;;;;11.05;79.83;101983.00;5054890;28;20029;-75
2021/09/20 02:21:40;;;;;;;6.85;4.72;;;;;;;11.07;79.75;101981.06;5054199;28;20475;-75
2021/09/20 02:24:06;;;;;;;6.20;4.68;;;;;;;11.10;78.15;101983.50;5054793;28;20435;-74
2021/09/20 02:26:31;;;;;;;5.28;4.47;;;;;;;11.16;78.48;101984.88;5053492;28;20025;-75
2021/09/20 02:28:56;;;;;;;5.68;4.50;;;;;;;11.21;77.73;101990.69;5054188;28;20068;-74
2021/09/20 02:31:22;;;;;;;9.07;4.97;;;;;;;11.28;77.43;101989.25;5054536;28;20029;-74
2021/09/20 02:33:48;;;;;;;5.30;4.43;;;;;;;11.38;76.41;101992.09;5052643;28;20453;-75
2021/09/20 02:36:13;;;;;;;6.65;5.13;;;;;;;11.42;76.47;102001.53;5054689;28;20033;-74
2021/09/20 02:38:39;;;;;;;5.25;4.57;;;;;;;11.47;76.39;101999.38;5053554;28;20029;-74
2021/09/20 02:41:05;;;;;;;6.35;4.65;;;;;;;11.52;76.86;102007.88;5054405;28;20033;-74
2021/09/20 02:43:31;;;;;;;6.55;4.80;;;;;;;11.56;77.02;102011.16;5053997;28;20461;-75
2021/09/20 02:45:56;;;;;;;5.28;4.32;;;;;;;11.57;77.09;102003.06;5053873;28;20469;-74
2021/09/20 02:48:22;;;;;;;10.40;4.43;;;;;;;11.60;76.45;102009.97;5054141;28;20477;-74
2021/09/20 02:50:48;;;;;;;8.52;5.25;;;;;;;11.61;77.58;102015.19;5053278;28;20044;-74
2021/09/20 02:53:13;;;;;;;5.25;4.75;;;;;;;11.61;77.82;102011.66;5053961;28;20075;-74
2021/09/20 02:55:39;;;;;;;10.98;5.20;;;;;;;11.64;77.95;102006.09;5053387;28;20044;-75
2021/09/20 02:58:04;;;;;;;6.47;5.25;;;;;;;11.64;77.96;102006.97;5053689;28;20374;-74
2021/09/20 03:00:30;;;;;;;6.07;4.72;;;;;;;11.64;78.28;102014.94;5053682;28;20428;-74
2021/09/20 03:02:55;;;;;;;8.50;5.28;;;;;;;11.64;78.58;102009.63;5053369;28;20427;-74
2021/09/20 03:05:20;;;;;;;8.20;5.50;;;;;;;11.64;78.44;102009.63;5053938;28;20040;-74
2021/09/20 03:07:46;;;;;;;6.97;5.65;;;;;;;11.67;78.65;102018.34;5051843;28;20049;-74
2021/09/20 03:10:12;;;;;;;8.23;6.10;;;;;;;11.65;78.17;102026.47;5053874;28;20107;-74
2021/09/20 03:12:38;;;;;;;7.28;5.63;;;;;;;11.64;77.50;102022.09;5052874;28;20099;-74
2021/09/20 03:15:04;;;;;;;7.53;5.38;;;;;;;11.64;77.93;102027.41;5053747;28;20071;-74
2021/09/20 03:17:29;;;;;;;7.55;5.28;;;;;;;11.62;78.97;102024.88;5053641;28;20064;-74
2021/09/20 03:19:54;;;;;;;7.65;5.70;;;;;;;11.59;77.73;102024.25;5052994;28;20186;-74
2021/09/20 03:22:20;;;;;;;7.13;5.70;;;;;;;11.58;78.23;102023.38;5053603;28;20493;-74
2021/09/20 03:24:46;;;;;;;7.05;5.60;;;;;;;11.58;78.05;102028.72;5052912;28;20040;-74
2021/09/20 03:27:11;;;;;;;10.30;5.60;;;;;;;11.57;77.70;102018.19;5053344;28;20465;-74
2021/09/20 03:29:36;;;;;;;13.27;5.55;;;;;;;11.54;78.01;102027.28;5052541;28;20462;-75
2021/09/20 03:32:02;;;;;;;9.45;5.75;;;;;;;11.50;76.61;102024.97;5053563;28;20033;-74
2021/09/20 03:34:27;;;;;;;8.00;5.70;;;;;;;11.47;76.75;102029.53;5053378;28;20033;-73
2021/09/20 03:36:53;;;;;;;8.63;5.45;;;;;;;11.46;76.57;102032.31;5052687;28;20553;-74
2021/09/20 03:39:18;;;;;;;7.30;5.35;;;;;;;11.41;75.58;102035.34;5052957;28;20028;-74
2021/09/20 03:41:43;;;;;;;9.38;5.57;;;;;;;11.40;76.38;102038.13;5052497;28;20029;-74
2021/09/20 03:44:09;;;;;;;7.32;5.85;;;;;;;11.38;75.87;102046.22;5051556;28;20029;-73
2021/09/20 03:46:37;;;;;;;7.57;5.88;;;;;;;11.38;76.07;102045.41;5051828;28;20041;-74
2021/09/20 03:49:03;;;;;;;9.13;6.00;;;;;;;11.40;75.28;102048.78;5052939;28;20029;-74
2021/09/20 03:51:29;;;;;;;6.88;5.05;;;;;;;11.39;74.72;102047.06;5053155;28;20025;-73
2021/09/20 03:53:55;;;;;;;8.65;5.90;;;;;;;11.40;75.60;102054.13;5052466;28;20029;-74
2021/09/20 03:56:20;;;;;;;9.32;5.53;;;;;;;11.40;75.73;102054.94;5052936;28;20029;-74
2021/09/20 03:58:46;;;;;;;7.97;5.90;;;;;;;11.41;75.51;102055.81;5052040;28;20048;-74
2021/09/20 04:01:11;;;;;;;8.48;6.00;;;;;;;11.40;74.20;102059.44;5052608;28;20033;-75
2021/09/20 04:03:37;;;;;;;6.65;5.30;;;;;;;11.41;74.36;102061.16;5053148;28;20112;-73
2021/09/20 04:06:02;;;;;;;7.20;5.70;;;;;;;11.39;73.20;102055.06;5052127;28;20037;-73
2021/09/20 04:08:28;;;;;;;7.57;5.20;;;;;;;11.38;73.43;102064.03;5052045;28;20029;-74
2021/09/20 04:10:56;;;;;;;8.48;6.05;;;;;;;11.37;74.08;102059.66;5051270;28;20034;-74
2021/09/20 04:13:22;;;;;;;7.03;5.43;;;;;;;11.36;72.81;102064.16;5052131;28;20035;-74
2021/09/20 04:15:49;;;;;;;7.65;5.18;;;;;;;11.35;73.04;102059.78;5050942;28;20037;-74
2021/09/20 04:18:14;;;;;;;8.93;5.85;;;;;;;11.36;73.87;102064.16;5051747;28;20095;-74
2021/09/20 04:20:39;;;;;;;7.88;5.70;;;;;;;11.35;73.72;102066.94;5051775;28;20036;-74
2021/09/20 04:23:05;;;;;;;7.55;5.72;;;;;;;11.32;73.66;102069.84;5051061;28;20036;-74
2021/09/20 04:25:30;;;;;;;7.25;5.60;;;;;;;11.32;73.38;102077.81;5050180;28;20037;-74
2021/09/20 04:27:56;;;;;;;6.68;5.57;;;;;;;11.28;73.75;102086.03;5050896;28;20033;-74
2021/09/20 04:30:21;;;;;;;7.60;5.70;;;;;;;11.27;75.34;102084.34;5050353;28;20103;-74
2021/09/20 04:32:47;;;;;;;8.18;6.10;;;;;;;11.25;75.20;102082.75;5050737;28;20082;-74
2021/09/20 04:35:12;;;;;;;11.55;5.93;;;;;;;11.23;74.79;102082.84;5051678;28;20436;-73
2021/09/20 04:37:38;;;;;;;8.43;6.13;;;;;;;11.23;74.27;102085.53;5051742;28;20043;-73
2021/09/20 04:40:05;;;;;;;8.20;5.38;;;;;;;11.23;73.25;102092.69;5051052;28;20044;-74
2021/09/20 04:42:30;;;;;;;9.30;5.60;;;;;;;11.20;73.39;102088.41;5051537;28;20104;-74
2021/09/20 04:44:56;;;;;;;7.38;5.72;;;;;;;11.19;74.36;102099.19;5050839;28;20021;-74
2021/09/20 04:47:21;;;;;;;8.07;5.70;;;;;;;11.16;75.64;102105.56;5051219;28;20564;-74
2021/09/20 04:49:46;;;;;;;9.40;5.57;;;;;;;11.13;75.34;102107.63;5049649;28;20435;-74
2021/09/20 04:52:12;;;;;;;12.57;8.32;;;;;;;11.09;75.55;102107.84;5051133;28;20386;-74
2021/09/20 04:54:37;;;;;;;7.53;6.47;;;;;;;11.05;75.11;102110.84;5051622;28;20056;-74
2021/09/20 04:57:03;;;;;;;9.52;6.35;;;;;;;11.00;76.16;102116.50;5051081;28;20037;-74
2021/09/20 04:59:28;;;;;;;7.38;6.28;;;;;;;10.97;75.59;102121.19;5051107;28;20024;-74
2021/09/20 05:01:54;;;;;;;8.70;6.72;;;;;;;10.91;75.28;102123.34;5050686;28;20036;-74
2021/09/20 05:04:19;;;;;;;8.18;6.32;;;;;;;10.88;74.95;102120.03;5051359;28;20561;-74
2021/09/20 05:06:45;;;;;;;7.78;6.07;;;;;;;10.87;74.39;102121.84;5013068;28;1096265;-73
2021/09/20 05:09:10;;;;;;;6.82;5.93;;;;;;;10.89;75.86;102130.56;5051794;28;20127;-74
2021/09/20 05:11:37;;;;;;;9.30;5.65;;;;;;;10.90;74.16;102124.31;5051971;28;20082;-74
2021/09/20 05:14:03;;;;;;;7.10;5.80;;;;;;;10.92;74.37;102124.19;5050312;28;20040;-73
2021/09/20 05:16:28;;;;;;;11.90;7.15;;;;;;;10.93;73.83;102136.56;5052051;28;20122;-73
2021/09/20 05:18:54;;;;;;;7.70;5.32;;;;;;;10.94;72.80;102138.22;5051513;28;20481;-74
2021/09/20 05:21:19;;;;;;;9.63;5.63;;;;;;;10.94;73.86;102135.56;5051654;28;20021;-73
2021/09/20 05:23:46;;;;;;;7.28;5.82;;;;;;;10.96;73.16;102143.44;5051668;28;20066;-73
2021/09/20 05:26:12;;;;;;;7.15;5.40;;;;;;;10.97;74.54;102147.81;5051235;28;20053;-73
2021/09/20 05:28:37;;;;;;;7.47;5.20;;;;;;;10.97;73.36;102143.34;5051891;28;20483;-74
2021/09/20 05:31:02;;;;;;;8.23;5.78;;;;;;;10.99;74.99;102153.88;5053430;28;20040;-74
2021/09/20 05:33:33;;;;;;;7.10;5.50;;;;;;;11.00;74.89;102152.94;5055585;28;20112;-74
2021/09/20 05:35:58;;;;;;;7.00;5.80;;;;;;;11.00;74.72;102150.25;5054861;28;20424;-74
2021/09/20 05:38:24;;;;;;;9.93;5.68;;;;;;;11.01;76.20;102147.50;5055347;28;20037;-74
2021/09/20 05:40:49;;;;;;;7.07;5.50;;;;;;;10.99;75.11;102152.09;5055433;28;20067;-74
2021/09/20 05:43:15;;;;;;;11.93;5.90;;;;;;;10.99;75.39;102159.22;5055205;28;20071;-74
2021/09/20 05:45:40;;;;;;;10.85;5.95;;;;;;;10.99;74.73;102159.22;5054052;28;20033;-74
2021/09/20 05:48:06;;;;;;;7.05;5.78;;;;;;;10.98;74.92;102162.84;5054813;28;20102;-75
2021/09/20 05:50:31;;;;;;;8.13;6.35;;;;;;;10.97;76.54;102164.66;5055314;28;20033;-74
2021/09/20 05:52:57;;;;;;;7.47;6.20;;;;;;;10.96;75.30;102168.28;5054818;28;20037;-74
2021/09/20 05:55:22;;;;;;;8.23;6.00;;;;;;;10.96;75.91;102164.75;5055414;28;20040;-74
2021/09/20 05:57:48;;;;;;;8.35;6.43;;;;;;;10.94;75.58;102170.19;5055043;28;20392;-74
2021/09/20 06:00:14;;;;;;;8.35;6.63;;;;;;;10.94;75.53;102173.72;5054487;28;20045;-74
2021/09/20 06:02:41;;;;;;;10.10;7.00;;;;;;;10.97;76.12;102174.47;5054825;28;20029;-73
2021/09/20 06:05:08;;;;;;;8.13;6.28;;;;;;;10.98;75.16;102171.69;5054362;28;20033;-73
2021/09/20 06:07:34;;;;;;;8.40;6.70;;;;;;;11.00;74.76;102176.91;5054916;28;20098;-73
2021/09/20 06:09:59;;;;;;;8.50;6.38;;;;;;;10.99;74.51;102180.50;5054422;28;20041;-74
2021/09/20 06:12:25;;;;;;;9.63;6.60;;;;;;;11.00;76.30;102187.56;5055029;28;20396;-77
2021/09/20 06:14:50;;;;;;;9.55;6.10;;;;;;;10.99;76.67;102188.50;5054878;28;20120;-73
2021/09/20 06:17:16;;;;;;;7.43;6.47;;;;;;;10.98;76.36;102185.00;5054776;28;20432;-75
2021/09/20 06:19:41;;;;;;;9.50;6.45;;;;;;;10.99;76.81;102199.16;5054790;28;20477;-75
2021/09/20 06:22:06;;;;;;;12.38;6.63;;;;;;;10.97;75.81;102196.59;5055057;28;20037;-77
2021/09/20 06:24:32;;;;;;;11.07;6.97;;;;;;;10.99;75.57;102193.81;5054945;28;20040;-75
2021/09/20 06:26:57;;;;;;;9.10;7.00;;;;;;;11.00;76.77;102196.41;5054318;28;20033;-71
2021/09/20 06:29:22;;;;;;;9.38;6.40;;;;;;;11.00;74.80;102198.19;5055874;28;20043;-71
2021/09/20 06:31:48;;;;;;;11.75;7.40;;;;;;;11.03;76.20;102197.97;5056138;28;20454;-72
2021/09/20 06:34:13;;;;;;;12.18;7.10;;;;;;;11.04;77.06;102202.34;5054811;28;20477;-71
2021/09/20 06:36:40;;;;;;;7.55;6.47;;;;;;;11.06;76.10;102203.97;5055745;28;20041;-73
2021/09/20 06:39:07;;;;;;;8.77;6.22;;;;;;;11.10;76.87;102197.44;5054005;28;20040;-69
2021/09/20 06:41:32;;;;;;;8.93;6.63;;;;;;;11.16;76.66;102205.97;5054789;28;20041;-74
2021/09/20 06:43:58;;;;;;;8.55;6.57;;;;;;;11.21;76.23;102199.34;5053809;28;20485;-75
2021/09/20 06:46:24;;;;;;;9.48;6.82;;;;;;;11.26;75.86;102204.34;5054275;28;20047;-73
2021/09/20 06:48:50;;;;;;;8.73;6.22;;;;;;;11.34;75.22;102206.47;5053562;28;20037;-72
2021/09/20 06:51:15;;;;;;;10.48;6.35;;;;;;;11.38;73.72;102208.78;5053936;28;20029;-75
2021/09/20 06:53:41;;;;;;;11.45;6.60;;;;;;;11.43;74.44;102213.78;5053866;28;20041;-74
2021/09/20 06:56:06;;;;;;;11.15;6.78;;;;;;;11.46;74.03;102209.09;5053861;28;20025;-76
2021/09/20 06:58:32;;;;;;;8.65;6.32;;;;;;;11.51;73.44;102205.22;5054589;28;20433;-78
2021/09/20 07:00:57;;;;;;;9.77;6.57;;;;;;;11.56;74.43;102208.41;5054052;28;20488;-76
2021/09/20 07:03:22;;;;;;;8.43;6.15;;;;;;;11.62;73.82;102203.47;5053404;28;20028;-76
2021/09/20 07:05:48;;;;;;;8.13;6.38;;;;;;;11.72;73.81;102202.78;5053587;28;20108;-75
2021/09/20 07:08:13;;;;;;;11.40;6.18;;;;;;;11.84;71.63;102207.25;5052786;28;20100;-75
2021/09/20 07:10:38;;;;;;;11.90;6.18;;;;;;;12.02;71.30;102209.50;5053855;28;20480;-74
2021/09/20 07:13:09;;;;;;;13.23;6.40;;;;;;;12.15;69.36;102212.94;5053315;28;20041;-75
2021/09/20 07:15:34;;;;;;;8.63;6.55;;;;;;;12.28;71.54;102218.22;5053442;28;20033;-75
2021/09/20 07:18:00;;;;;;;10.57;6.75;;;;;;;12.38;70.43;102223.72;5053691;28;20040;-74
2021/09/20 07:20:25;;;;;;;7.45;6.32;;;;;;;12.42;69.59;102219.81;5032667;28;20530;-74
2021/09/20 07:22:51;;;;;;;15.30;7.10;;;;;;;12.48;70.68;102224.69;5030974;28;20044;-74
2021/09/20 07:25:16;;;;;;;8.82;6.38;;;;;;;12.53;70.21;102226.03;5029958;28;20033;-74
2021/09/20 07:27:42;;;;;;;12.50;6.75;;;;;;;12.56;68.79;102230.31;5030318;28;20164;-76
2021/09/20 07:30:09;;;;;;;9.85;6.68;;;;;;;12.65;67.68;102234.09;5028573;28;20104;-75
2021/09/20 07:32:34;;;;;;;11.77;6.47;;;;;;;12.72;67.43;102231.78;5030358;28;20044;-75
2021/09/20 07:34:59;;;;;;;9.45;6.32;;;;;;;12.74;67.41;102243.22;5030682;28;20064;-74
2021/09/20 07:37:25;;;;;;;8.57;6.45;;;;;;;12.77;66.21;102237.63;5030636;28;20041;-73
2021/09/20 07:39:51;;;;;;;8.40;6.18;;;;;;;12.84;66.23;102247.72;5030995;28;20490;-73
2021/09/20 07:42:16;;;;;;;11.40;6.88;;;;;;;12.99;65.85;102243.00;5030129;28;20450;-70
2021/09/20 07:44:42;;;;;;;9.25;6.75;;;;;;;13.17;66.57;102247.88;5030735;28;20438;-72
2021/09/20 07:47:07;;;;;;;7.88;6.18;;;;;;;13.44;65.55;102252.84;5029910;28;20033;-71
2021/09/20 07:49:33;;;;;;;10.60;6.72;;;;;;;13.63;64.58;102240.66;5030006;28;20045;-72
2021/09/20 07:51:58;;;;;;;12.00;6.63;;;;;;;13.80;64.69;102248.16;5030423;28;20041;-72
2021/09/20 07:54:24;;;;;;;9.65;6.10;;;;;;;13.90;61.22;102243.75;5029018;28;20532;-72
2021/09/20 07:56:49;;;;;;;12.35;6.43;;;;;;;14.14;62.40;102245.38;5030190;28;20124;-70
2021/09/20 07:59:15;;;;;;;7.03;5.63;;;;;;;14.34;59.57;102249.03;5029648;28;20112;-74
2021/09/20 08:01:40;;;;;;;6.47;5.60;;;;;;;14.59;59.59;102255.84;5029651;28;20038;-74
2021/09/20 08:04:06;;;;;;;6.93;5.30;;;;;;;15.06;57.66;102259.94;5030031;28;20033;-71
2021/09/20 08:06:31;;;;;;;7.40;5.25;;;;;;;15.44;57.19;102264.59;5044844;28;20145;-72
2021/09/20 08:08:58;;;;;;;7.43;5.53;;;;;;;15.36;57.35;102269.81;5028598;28;20044;-68
2021/09/20 08:11:23;;;;;;;7.70;5.38;;;;;;;15.21;55.47;102265.78;5029004;28;20041;-68
2021/09/20 08:13:49;;;;;;;6.13;5.28;;;;;;;15.03;55.69;102274.44;5029813;28;20044;-70
2021/09/20 08:16:14;;;;;;;7.20;5.20;;;;;;;14.79;57.21;102280.09;5035937;28;20029;-71
2021/09/20 08:18:40;;;;;;;7.55;5.50;;;;;;;14.71;57.71;102286.13;5046383;28;20033;-73
2021/09/20 08:21:06;;;;;;;9.55;5.80;;;;;;;14.67;58.58;102282.00;5051779;28;20140;-80
2021/09/20 08:23:32;;;;;;;8.52;5.55;;;;;;;14.68;59.64;102283.69;5052236;28;20040;-71
2021/09/20 08:25:58;;;;;;;5.47;4.93;;;;;;;14.96;59.28;102286.69;5051827;28;20033;-72
2021/09/20 08:28:23;;;;;;;8.35;5.80;;;;;;;15.04;55.33;102286.03;5049876;28;20063;-72
2021/09/20 08:30:49;;;;;;;10.18;5.80;;;;;;;15.37;54.62;102289.41;5052342;28;20403;-73
2021/09/20 08:33:14;;;;;;;10.23;5.75;;;;;;;15.72;53.97;102288.09;5051554;28;20037;-72
2021/09/20 08:35:40;;;;;;;7.25;5.97;;;;;;;16.11;53.12;102298.94;5051742;28;20481;-71
2021/09/20 08:38:05;;;;;;;7.03;6.20;;;;;;;16.48;51.77;102293.72;5052150;28;20473;-73
2021/09/20 08:40:31;;;;;;;8.73;6.40;;;;;;;16.74;50.51;102290.44;5051279;28;20418;-72
2021/09/20 08:42:58;;;;;;;12.52;6.63;;;;;;;17.35;49.94;102304.44;5052227;28;20101;-73
2021/09/20 08:45:25;;;;;;;10.35;7.28;;;;;;;17.59;46.77;102304.72;5051586;28;20056;-71
2021/09/20 08:47:53;;;;;;;10.55;6.50;;;;;;;17.72;47.86;102299.00;5051882;28;20033;-71
2021/09/20 08:50:31;;;;;;;10.85;6.95;;;;;;;18.08;46.97;102295.53;5051837;28;20099;-71
2021/09/20 08:52:57;;;;;;;8.40;6.30;;;;;;;18.74;45.68;102298.78;5052338;28;20462;-72
2021/09/20 08:55:23;;;;;;;10.30;6.75;;;;;;;19.34;43.27;102298.81;5051437;28;20029;-71
2021/09/20 08:57:48;;;;;;;7.75;6.93;;;;;;;19.60;40.20;102300.63;5050701;28;20086;-71
2021/09/20 09:00:14;;;;;;;7.65;6.35;;;;;;;20.19;39.62;102303.28;5051586;28;20040;-71
2021/09/20 09:02:40;;;;;;;9.85;6.00;;;;;;;20.92;37.31;102303.47;5052225;28;20037;-70
2021/09/20 09:05:16;;;;;;;6.57;5.90;;;;;;;21.34;36.90;102309.63;5053250;28;20441;-71
2021/09/20 09:07:43;;;;;;;7.00;5.97;;;;;;;22.04;35.43;102302.50;5054759;28;20460;-71
2021/09/20 09:10:09;;;;;;;8.95;5.88;;;;;;;22.44;34.83;102311.38;5056306;28;20071;-71
2021/09/20 09:12:36;;;;;;;6.63;5.95;;;;;;;21.94;33.82;102306.28;5055855;28;20069;-70
2021/09/20 09:15:04;;;;;;;5.72;5.20;;;;;;;21.79;33.92;102313.47;5056064;28;20071;-70
2021/09/20 09:17:39;;;;;;;8.20;5.93;;;;;;;21.70;35.30;102318.09;5055091;28;20029;-70
2021/09/20 09:20:04;;;;;;;7.22;5.90;;;;;;;21.49;33.99;102324.94;5055834;28;20107;-71
2021/09/20 09:22:52;;;;;;;7.28;5.82;;;;;;;21.72;35.85;102318.78;5055072;28;20105;-70
2021/09/20 09:25:21;;;;;;;7.32;5.78;;;;;;;21.75;34.82;102318.44;5054185;28;20029;-71
2021/09/20 09:27:50;;;;;;;10.18;6.00;;;;;;;21.77;35.85;102327.22;5055283;28;20045;-70
2021/09/20 09:30:18;;;;;;;8.10;6.10;;;;;;;21.95;34.79;102323.41;5055269;28;20025;-69
2021/09/20 09:32:45;;;;;;;8.93;6.00;;;;;;;21.91;35.25;102322.06;5055866;28;20029;-71
2021/09/20 09:35:12;;;;;;;6.63;6.03;;;;;;;21.30;35.86;102311.81;5055888;28;20037;-70
2021/09/20 09:37:39;;;;;;;7.82;6.68;;;;;;;20.96;36.10;102319.19;5055171;28;20064;-73
2021/09/20 09:40:13;;;;;;;8.68;6.30;;;;;;;21.39;36.25;102328.88;5055503;28;20515;-71
2021/09/20 09:42:40;;;;;;;7.05;6.35;;;;;;;21.23;36.50;102327.91;5055031;28;20385;-71
2021/09/20 09:45:18;;;;;;;7.78;6.82;;;;;;;21.73;36.22;102317.75;5055660;28;20044;-71
2021/09/20 09:47:44;;;;;;;7.35;6.60;;;;;;;21.44;37.21;102326.50;5055451;28;20491;-70
2021/09/20 09:50:13;;;;;;;8.93;7.00;;;;;;;21.09;35.06;102321.38;5055593;28;20108;-72
2021/09/20 09:52:38;;;;;;;10.27;6.15;;;;;;;21.24;36.43;102328.75;5054674;28;20039;-72
2021/09/20 09:55:06;;;;;;;7.80;6.43;;;;;;;21.92;36.51;102329.16;5055501;28;20032;-73
2021/09/20 09:57:32;;;;;;;8.05;5.88;;;;;;;21.88;37.47;102330.53;5055027;28;20041;-72
2021/09/20 10:00:16;;;;;;;7.28;6.28;;;;;;;22.14;36.08;102328.34;5055307;28;20040;-73
2021/09/20 10:02:46;;;;;;;9.63;6.50;;;;;;;21.34;36.64;102336.69;5054383;28;20099;-73
2021/09/20 10:05:22;;;;;;;8.00;6.53;;;;;;;21.02;37.69;102336.59;5055340;28;20032;-70
2021/09/20 10:07:49;;;;;;;7.13;6.43;;;;;;;20.56;38.07;102338.97;5055372;28;20071;-69
2021/09/20 10:10:18;;;;;;;10.50;6.72;;;;;;;20.86;37.08;102331.22;5055186;28;20033;-70
2021/09/20 10:12:45;;;;;;;6.38;5.72;;;;;;;21.33;37.42;102332.28;5053899;28;20029;-70
2021/09/20 10:15:15;;;;;;;6.63;6.03;;;;;;;21.60;37.36;102328.31;5054578;28;20112;-70
2021/09/20 10:17:41;;;;;;;8.00;6.32;;;;;;;22.25;37.16;102332.50;5053944;28;20118;-72
2021/09/20 10:20:09;;;;;;;7.47;6.05;;;;;;;22.13;37.16;102334.78;5054851;28;20115;-73
2021/09/20 10:22:35;;;;;;;7.50;6.32;;;;;;;22.68;34.83;102337.44;5054508;28;20041;-73
2021/09/20 10:25:03;;;;;;;7.32;6.55;;;;;;;23.21;33.64;102329.28;5053426;28;20055;-73
2021/09/20 10:27:29;;;;;;;6.80;6.10;;;;;;;22.59;33.98;102336.69;5054252;28;20472;-73
2021/09/20 10:30:13;;;;;;;9.40;6.40;;;;;;;23.16;35.73;102338.00;5054811;28;20036;-73
2021/09/20 10:32:42;;;;;;;6.95;6.25;;;;;;;23.31;34.75;102334.47;5054207;28;20032;-73
2021/09/20 10:35:25;;;;;;;9.43;6.20;;;;;;;23.13;34.90;102332.13;5054162;28;20032;-72
2021/09/20 10:37:54;;;;;;;9.50;6.30;;;;;;;22.64;35.36;102338.84;5054226;28;20025;-76
2021/09/20 10:40:20;;;;;;;10.85;6.50;;;;;;;22.08;35.98;102334.50;5054881;28;20036;-74
2021/09/20 10:42:49;;;;;;;12.13;6.22;;;;;;;21.69;37.25;102340.81;5054418;28;20037;-72
2021/09/20 10:45:43;;;;;;;9.95;6.47;;;;;;;21.43;38.78;102338.34;5054162;28;20402;-72
2021/09/20 10:48:18;;;;;;;8.55;6.07;;;;;;;21.59;37.20;102338.31;5054000;28;20028;-73
2021/09/20 10:50:45;;;;;;;6.63;5.88;;;;;;;21.56;38.03;102327.81;5053513;28;20033;-77
2021/09/20 10:53:29;;;;;;;12.35;6.20;;;;;;;22.46;35.83;102328.31;5054313;28;20086;-71
2021/09/20 10:56:04;;;;;;;6.70;5.97;;;;;;;22.65;36.66;102321.53;5052104;28;20040;-73
2021/09/20 10:58:31;;;;;;;9.38;6.32;;;;;;;22.73;35.22;102326.03;5050901;28;20068;-72
2021/09/20 11:01:12;;;;;;;6.65;6.03;;;;;;;22.86;33.92;102334.41;5053688;28;20051;-72
2021/09/20 11:03:44;;;;;;;6.32;5.72;;;;;;;22.58;36.02;102331.44;5033161;28;20033;-73
2021/09/20 11:06:29;;;;;;;9.05;6.22;;;;;;;23.20;34.45;102333.88;5032894;28;20497;-72
2021/09/20 11:08:57;;;;;;;6.50;5.75;;;;;;;23.46;34.38;102340.72;5032997;28;20113;-73
2021/09/20 11:11:41;;;;;;;7.60;6.05;;;;;;;23.33;34.46;102340.53;5033153;28;20078;-73
2021/09/20 11:14:15;;;;;;;7.85;6.60;;;;;;;23.51;33.63;102343.72;5032410;28;20033;-72
2021/09/20 11:16:54;;;;;;;7.07;5.90;;;;;;;23.57;33.55;102329.38;5033238;28;20033;-72
2021/09/20 11:19:25;;;;;;;7.53;6.22;;;;;;;23.54;32.73;102337.03;5033986;28;20123;-71
2021/09/20 11:22:02;;;;;;;8.00;6.05;;;;;;;23.39;33.46;102337.91;5033247;28;20174;-71